createdAt,value
2022-11-20T00:01:31.631Z,1.27
2022-11-20T00:03:59.166Z,1.28
2022-11-20T00:06:27.662Z,1.29
2022-11-20T00:08:59.336Z,1.34
2022-11-20T00:11:28.004Z,1.38
2022-11-20T00:13:58.229Z,1.35
2022-11-20T00:16:27.070Z,1.32
2022-11-20T00:18:55.194Z,1.35
2022-11-20T00:21:25.478Z,1.33
2022-11-20T00:23:55.309Z,1.33
2022-11-20T00:26:24.110Z,1.11
2022-11-20T00:28:53.489Z,1.32
2022-11-20T00:31:20.670Z,1.30
2022-11-20T00:33:47.867Z,1.24
2022-11-20T00:36:17.727Z,1.15
2022-11-20T00:38:46.378Z,1.21
2022-11-20T00:41:15.853Z,1.15
2022-11-20T00:43:42.867Z,1.08
2022-11-20T00:46:22.310Z,1.17
2022-11-20T00:48:49.448Z,1.21
2022-11-20T00:51:19.943Z,1.30
2022-11-20T00:53:47.543Z,1.27
2022-11-20T00:56:17.733Z,1.40
2022-11-20T00:58:47.055Z,1.24
2022-11-20T01:01:19.961Z,1.45
2022-11-20T01:03:51.803Z,1.48
2022-11-20T01:06:40.139Z,1.47
2022-11-20T01:09:11.789Z,1.45
2022-11-20T01:11:42.082Z,1.31
2022-11-20T01:14:17.146Z,1.38
2022-11-20T01:16:46.920Z,1.34
2022-11-20T01:19:18.187Z,1.30
2022-11-20T01:21:47.329Z,1.18
2022-11-20T01:24:15.679Z,1.11
2022-11-20T01:26:44.071Z,1.03
2022-11-20T01:29:21.353Z,1.08
2022-11-20T01:31:48.509Z,1.05
2022-11-20T01:34:18.520Z,1.04
2022-11-20T01:36:45.944Z,1.01
2022-11-20T01:39:17.184Z,1.02
2022-11-20T01:42:09.374Z,1.02
2022-11-20T01:44:57.689Z,1.04
2022-11-20T01:47:39.870Z,1.09
2022-11-20T01:50:22.870Z,1.07
2022-11-20T01:52:55.966Z,1.05
2022-11-20T01:55:29.197Z,1.10
2022-11-20T01:57:56.686Z,1.10
2022-11-20T02:00:23.468Z,1.14
2022-11-20T02:02:58.269Z,1.15
2022-11-20T02:05:44.552Z,1.19
2022-11-20T02:08:12.824Z,1.15
2022-11-20T02:10:39.588Z,1.24
2022-11-20T02:13:25.344Z,1.26
2022-11-20T02:15:52.906Z,1.28
2022-11-20T02:18:21.084Z,1.19
2022-11-20T02:20:51.140Z,1.32
2022-11-20T02:23:48.786Z,1.32
2022-11-20T02:26:18.004Z,1.30
2022-11-20T02:28:45.068Z,1.32
2022-11-20T02:31:11.959Z,1.25
2022-11-20T02:33:39.243Z,1.29
2022-11-20T02:36:06.568Z,1.29
2022-11-20T02:38:33.523Z,1.29
2022-11-20T02:41:00.316Z,1.30
2022-11-20T02:43:27.119Z,1.30
2022-11-20T02:45:53.923Z,1.32
2022-11-20T02:48:20.736Z,1.32
2022-11-20T02:50:48.195Z,1.31
2022-11-20T02:53:14.928Z,1.30
2022-11-20T02:55:41.852Z,1.30
2022-11-20T02:58:08.690Z,1.27
2022-11-20T03:00:36.512Z,1.32
2022-11-20T03:03:03.395Z,1.33
2022-11-20T03:05:30.162Z,1.21
2022-11-20T03:07:56.927Z,1.34
2022-11-20T03:10:23.912Z,1.36
2022-11-20T03:12:56.868Z,1.32
2022-11-20T03:15:24.645Z,1.20
2022-11-20T03:17:55.744Z,1.22
2022-11-20T03:20:23.211Z,1.15
2022-11-20T03:22:50.107Z,1.23
2022-11-20T03:25:17.000Z,1.31
2022-11-20T03:27:43.779Z,1.30
2022-11-20T03:30:11.049Z,1.29
2022-11-20T03:32:37.873Z,1.25
2022-11-20T03:35:05.037Z,1.36
2022-11-20T03:37:32.824Z,1.36
2022-11-20T03:39:59.724Z,1.36
2022-11-20T03:42:45.205Z,1.33
2022-11-20T03:45:12.755Z,1.35
2022-11-20T03:47:39.970Z,1.37
2022-11-20T03:50:07.252Z,1.34
2022-11-20T03:52:34.016Z,1.32
2022-11-20T03:55:00.843Z,1.34
2022-11-20T03:57:27.592Z,1.31
2022-11-20T03:59:54.314Z,1.31
2022-11-20T04:02:21.150Z,1.21
2022-11-20T04:04:47.879Z,1.27
2022-11-20T04:07:14.717Z,1.17
2022-11-20T04:09:41.592Z,1.06
2022-11-20T04:12:08.406Z,1.24
2022-11-20T04:14:35.134Z,1.17
2022-11-20T04:17:01.989Z,1.24
2022-11-20T04:19:28.860Z,1.24
2022-11-20T04:21:55.629Z,1.12
2022-11-20T04:24:22.415Z,1.24
2022-11-20T04:26:49.190Z,1.23
2022-11-20T04:29:16.272Z,1.29
2022-11-20T04:31:43.085Z,1.32
2022-11-20T04:34:12.819Z,1.18
2022-11-20T04:36:39.686Z,1.34
2022-11-20T04:39:07.474Z,1.15
2022-11-20T04:41:36.481Z,1.32
2022-11-20T04:44:05.306Z,1.25
2022-11-20T04:46:35.484Z,1.31
2022-11-20T04:49:02.433Z,1.28
2022-11-20T04:51:29.429Z,1.27
2022-11-20T04:53:56.445Z,1.29
2022-11-20T04:56:23.510Z,1.32
2022-11-20T04:58:51.006Z,1.19
2022-11-20T05:01:20.379Z,1.20
2022-11-20T05:03:47.354Z,1.31
2022-11-20T05:06:16.383Z,1.12
2022-11-20T05:08:43.703Z,1.26
2022-11-20T05:11:13.471Z,1.29
2022-11-20T05:13:40.852Z,1.21
2022-11-20T05:16:10.933Z,1.14
2022-11-20T05:18:38.794Z,1.29
2022-11-20T05:21:06.587Z,1.13
2022-11-20T05:23:34.323Z,1.10
2022-11-20T05:26:01.954Z,1.30
2022-11-20T05:28:30.282Z,1.33
2022-11-20T05:30:57.129Z,1.35
2022-11-20T05:33:23.954Z,1.36
2022-11-20T05:35:50.987Z,1.35
2022-11-20T05:38:17.760Z,1.19
2022-11-20T05:40:44.654Z,1.29
2022-11-20T05:43:11.430Z,1.30
2022-11-20T05:45:38.279Z,1.22
2022-11-20T05:48:05.283Z,1.26
2022-11-20T05:50:32.117Z,1.20
2022-11-20T05:53:00.600Z,1.09
2022-11-20T05:55:28.278Z,1.10
2022-11-20T05:57:56.168Z,1.03
2022-11-20T06:00:23.363Z,1.06
2022-11-20T06:02:50.256Z,1.11
2022-11-20T06:05:17.323Z,1.09
2022-11-20T06:07:44.338Z,1.03
2022-11-20T06:10:11.440Z,1.01
2022-11-20T06:12:38.260Z,1.10
2022-11-20T06:15:06.649Z,1.12
2022-11-20T06:17:33.381Z,1.12
2022-11-20T06:20:00.360Z,1.13
2022-11-20T06:22:27.167Z,1.09
2022-11-20T06:24:53.949Z,1.24
2022-11-20T06:27:20.804Z,1.25
2022-11-20T06:29:47.593Z,1.28
2022-11-20T06:32:14.473Z,1.29
2022-11-20T06:34:41.284Z,1.26
2022-11-20T06:37:08.094Z,1.24
2022-11-20T06:39:34.891Z,1.33
2022-11-20T06:42:01.643Z,1.27
2022-11-20T06:44:28.417Z,1.28
2022-11-20T06:46:55.259Z,1.38
2022-11-20T06:49:22.358Z,1.50
2022-11-20T06:51:49.296Z,1.54
2022-11-20T06:54:16.118Z,1.58
2022-11-20T06:56:42.921Z,1.67
2022-11-20T06:59:09.917Z,1.65
2022-11-20T07:01:37.258Z,1.65
2022-11-20T07:04:04.298Z,1.77
2022-11-20T07:06:31.270Z,1.83
2022-11-20T07:08:58.547Z,1.82
2022-11-20T07:11:25.430Z,1.84
2022-11-20T07:13:52.221Z,1.83
2022-11-20T07:16:19.300Z,1.77
2022-11-20T07:18:50.466Z,1.80
2022-11-20T07:21:18.311Z,1.83
2022-11-20T07:23:45.158Z,1.87
2022-11-20T07:26:12.229Z,1.91
2022-11-20T07:28:39.453Z,1.86
2022-11-20T07:31:14.620Z,1.98
2022-11-20T07:33:44.436Z,1.99
2022-11-20T07:36:11.403Z,1.88
2022-11-20T07:38:38.977Z,1.98
2022-11-20T07:41:05.979Z,2.00
2022-11-20T07:43:35.874Z,2.09
2022-11-20T07:46:06.673Z,2.18
2022-11-20T07:48:33.513Z,2.25
2022-11-20T07:51:00.425Z,2.16
2022-11-20T07:53:27.305Z,2.31
2022-11-20T07:55:54.234Z,2.34
2022-11-20T07:58:22.489Z,2.30
2022-11-20T08:00:49.754Z,2.48
2022-11-20T08:03:21.636Z,2.48
2022-11-20T08:05:51.332Z,2.57
2022-11-20T08:08:18.433Z,2.66
2022-11-20T08:10:45.265Z,2.61
2022-11-20T08:13:30.778Z,2.70
2022-11-20T08:15:57.605Z,2.74
2022-11-20T08:18:31.166Z,2.70
2022-11-20T08:20:59.274Z,2.53
2022-11-20T08:23:26.116Z,2.69
2022-11-20T08:25:52.915Z,2.72
2022-11-20T08:28:22.296Z,2.74
2022-11-20T08:30:51.251Z,2.73
2022-11-20T08:33:19.290Z,2.84
2022-11-20T08:35:46.499Z,2.76
2022-11-20T08:38:13.273Z,2.82
2022-11-20T08:40:40.021Z,2.76
2022-11-20T08:43:06.853Z,2.84
2022-11-20T08:45:34.955Z,3.00
2022-11-20T08:48:04.230Z,3.05
2022-11-20T08:50:33.326Z,3.02
2022-11-20T08:53:05.498Z,3.11
2022-11-20T08:55:32.607Z,3.22
2022-11-20T08:57:59.516Z,3.28
2022-11-20T09:00:27.138Z,3.43
2022-11-20T09:02:54.062Z,3.35
2022-11-20T09:05:20.910Z,3.31
2022-11-20T09:07:47.745Z,3.29
2022-11-20T09:10:24.018Z,3.37
2022-11-20T09:12:52.953Z,3.34
2022-11-20T09:15:20.338Z,3.28
2022-11-20T09:17:57.824Z,3.29
2022-11-20T09:20:25.449Z,3.29
2022-11-20T09:22:52.711Z,3.25
2022-11-20T09:25:21.589Z,3.26
2022-11-20T09:27:48.816Z,3.37
2022-11-20T09:30:16.609Z,3.40
2022-11-20T09:32:43.895Z,3.35
2022-11-20T09:35:11.928Z,3.43
2022-11-20T09:37:39.187Z,3.46
2022-11-20T09:40:06.641Z,3.47
2022-11-20T09:42:48.649Z,3.50
2022-11-20T09:45:24.523Z,3.66
2022-11-20T09:48:16.881Z,3.71
2022-11-20T09:50:48.815Z,3.76
2022-11-20T09:53:35.080Z,3.76
2022-11-20T09:56:04.383Z,3.83
2022-11-20T09:58:41.508Z,3.82
2022-11-20T10:01:15.599Z,4.08
2022-11-20T10:03:52.743Z,4.13
2022-11-20T10:06:25.282Z,4.30
2022-11-20T10:09:20.067Z,4.31
2022-11-20T10:12:29.426Z,4.35
2022-11-20T10:15:05.137Z,4.40
2022-11-20T10:17:56.536Z,4.52
2022-11-20T10:20:47.704Z,5.00
2022-11-20T10:23:29.468Z,5.85
2022-11-20T10:26:03.976Z,6.24
2022-11-20T10:29:00.661Z,6.47
2022-11-20T10:31:42.466Z,6.34
2022-11-20T10:34:25.289Z,6.76
2022-11-20T10:37:04.818Z,6.80
2022-11-20T10:39:42.411Z,6.98
2022-11-20T10:42:18.329Z,7.43
2022-11-20T10:45:05.736Z,7.74
2022-11-20T10:47:33.922Z,8.13
2022-11-20T10:50:10.750Z,8.79
2022-11-20T10:52:56.018Z,9.27
2022-11-20T10:55:33.960Z,9.38
2022-11-20T10:58:08.169Z,9.42
2022-11-20T11:00:35.034Z,9.28
2022-11-20T11:03:04.020Z,9.61
2022-11-20T11:05:40.540Z,10.07
2022-11-20T11:08:14.784Z,10.12
2022-11-20T11:11:20.347Z,10.36
2022-11-20T11:13:47.173Z,9.60
2022-11-20T11:16:28.078Z,9.44
2022-11-20T11:19:13.290Z,8.94
2022-11-20T11:21:53.841Z,9.56
2022-11-20T11:24:46.000Z,9.60
2022-11-20T11:27:19.136Z,9.67
2022-11-20T11:29:47.140Z,9.17
2022-11-20T11:32:15.408Z,9.16
2022-11-20T11:34:42.645Z,9.10
2022-11-20T11:37:18.584Z,8.95
2022-11-20T11:39:49.397Z,8.55
2022-11-20T11:42:22.125Z,8.92
2022-11-20T11:45:07.803Z,8.96
2022-11-20T11:47:46.470Z,8.38
2022-11-20T11:50:13.248Z,8.54
2022-11-20T11:52:52.381Z,8.31
2022-11-20T11:55:34.347Z,8.27
2022-11-20T11:58:26.410Z,8.48
2022-11-20T12:01:04.391Z,8.55
2022-11-20T12:03:44.382Z,8.34
2022-11-20T12:06:15.184Z,8.23
2022-11-20T12:09:00.726Z,8.45
2022-11-20T12:11:38.952Z,8.41
2022-11-20T12:14:30.798Z,8.37
2022-11-20T12:16:58.683Z,8.27
2022-11-20T12:19:26.099Z,7.89
2022-11-20T12:22:01.898Z,7.63
2022-11-20T12:24:30.096Z,7.42
2022-11-20T12:27:15.456Z,7.26
2022-11-20T12:30:14.752Z,7.15
2022-11-20T12:32:45.187Z,7.17
2022-11-20T12:35:30.607Z,7.17
2022-11-20T12:38:09.613Z,7.30
2022-11-20T12:40:54.867Z,7.23
2022-11-20T12:43:51.410Z,7.09
2022-11-20T12:46:27.332Z,7.37
2022-11-20T12:49:01.242Z,7.51
2022-11-20T12:51:35.165Z,7.47
2022-11-20T12:54:07.877Z,7.60
2022-11-20T12:56:47.062Z,7.42
2022-11-20T12:59:32.639Z,7.63
2022-11-20T13:02:33.269Z,7.72
2022-11-20T13:05:22.770Z,7.57
2022-11-20T13:07:53.181Z,7.51
2022-11-20T13:10:28.830Z,7.52
2022-11-20T13:13:06.726Z,7.72
2022-11-20T13:15:44.563Z,7.90
2022-11-20T13:18:13.514Z,8.26
2022-11-20T13:20:48.038Z,8.25
2022-11-20T13:23:28.656Z,8.47
2022-11-20T13:26:18.708Z,8.76
2022-11-20T13:28:50.651Z,8.96
2022-11-20T13:31:31.897Z,8.94
2022-11-20T13:34:01.161Z,8.67
2022-11-20T13:36:31.695Z,8.78
2022-11-20T13:38:59.156Z,8.56
2022-11-20T13:41:36.530Z,8.60
2022-11-20T13:44:25.044Z,8.46
2022-11-20T13:46:52.669Z,8.50
2022-11-20T13:49:29.012Z,8.58
2022-11-20T13:52:20.405Z,8.58
2022-11-20T13:54:56.384Z,8.26
2022-11-20T13:57:33.874Z,8.20
2022-11-20T14:00:14.765Z,8.13
2022-11-20T14:02:43.891Z,7.78
2022-11-20T14:05:24.709Z,7.64
2022-11-20T14:07:54.149Z,7.63
2022-11-20T14:10:31.285Z,7.30
2022-11-20T14:12:59.189Z,7.41
2022-11-20T14:15:29.079Z,7.43
2022-11-20T14:17:56.474Z,7.58
2022-11-20T14:20:28.606Z,7.84
2022-11-20T14:22:56.557Z,7.96
2022-11-20T14:25:28.377Z,8.15
2022-11-20T14:27:58.669Z,8.13
2022-11-20T14:30:29.058Z,7.51
2022-11-20T14:33:01.274Z,7.28
2022-11-20T14:35:35.691Z,6.90
2022-11-20T14:38:03.765Z,6.72
2022-11-20T14:40:39.818Z,6.24
2022-11-20T14:43:38.987Z,6.07
2022-11-20T14:46:13.387Z,5.97
2022-11-20T14:48:44.382Z,5.81
2022-11-20T14:51:13.447Z,5.67
2022-11-20T14:53:40.618Z,5.49
2022-11-20T14:56:09.446Z,5.41
2022-11-20T14:58:36.444Z,5.47
2022-11-20T15:01:06.731Z,5.32
2022-11-20T15:03:39.360Z,5.31
2022-11-20T15:06:12.542Z,5.23
2022-11-20T15:08:39.800Z,5.16
2022-11-20T15:11:24.967Z,5.12
2022-11-20T15:13:52.112Z,5.03
2022-11-20T15:16:22.099Z,4.96
2022-11-20T15:18:49.600Z,4.81
2022-11-20T15:21:19.275Z,4.76
2022-11-20T15:23:46.539Z,4.69
2022-11-20T15:26:20.025Z,4.64
2022-11-20T15:28:51.465Z,4.59
2022-11-20T15:31:21.390Z,4.47
2022-11-20T15:33:49.224Z,4.43
2022-11-20T15:36:16.698Z,4.35
2022-11-20T15:38:43.949Z,4.30
2022-11-20T15:41:13.877Z,4.21
2022-11-20T15:43:40.818Z,4.20
2022-11-20T15:46:13.113Z,4.11
2022-11-20T15:48:48.558Z,4.01
2022-11-20T15:51:26.781Z,4.03
2022-11-20T15:53:54.155Z,3.99
2022-11-20T15:56:21.833Z,3.86
2022-11-20T15:58:49.164Z,3.93
2022-11-20T16:01:19.768Z,3.97
2022-11-20T16:03:47.709Z,3.95
2022-11-20T16:06:15.068Z,3.93
2022-11-20T16:08:42.623Z,3.86
2022-11-20T16:11:14.073Z,3.82
2022-11-20T16:13:59.729Z,3.58
2022-11-20T16:16:31.567Z,3.67
2022-11-20T16:18:59.377Z,3.55
2022-11-20T16:21:32.567Z,3.63
2022-11-20T16:24:01.370Z,3.58
2022-11-20T16:26:28.930Z,3.69
2022-11-20T16:28:57.166Z,3.69
2022-11-20T16:31:24.598Z,3.67
2022-11-20T16:33:59.681Z,3.51
2022-11-20T16:36:28.928Z,3.55
2022-11-20T16:38:59.317Z,3.50
2022-11-20T16:41:28.430Z,3.49
2022-11-20T16:44:03.653Z,3.28
2022-11-20T16:46:32.830Z,3.32
2022-11-20T16:49:01.042Z,3.08
2022-11-20T16:51:29.916Z,3.16
2022-11-20T16:53:57.263Z,3.10
2022-11-20T16:56:27.154Z,3.05
2022-11-20T16:58:56.928Z,2.98
2022-11-20T17:01:25.555Z,2.92
2022-11-20T17:04:04.832Z,2.87
2022-11-20T17:06:34.872Z,2.79
2022-11-20T17:09:02.656Z,2.72
2022-11-20T17:11:30.241Z,2.64
2022-11-20T17:14:00.900Z,2.54
2022-11-20T17:16:28.589Z,2.55
2022-11-20T17:19:02.815Z,2.45
2022-11-20T17:21:36.471Z,2.45
2022-11-20T17:24:05.992Z,2.39
2022-11-20T17:26:34.377Z,2.24
2022-11-20T17:29:07.756Z,2.20
2022-11-20T17:31:36.154Z,2.16
2022-11-20T17:34:03.620Z,2.13
2022-11-20T17:36:31.362Z,1.99
2022-11-20T17:38:59.466Z,2.01
2022-11-20T17:41:28.422Z,1.88
2022-11-20T17:44:00.770Z,1.93
2022-11-20T17:46:30.847Z,1.88
2022-11-20T17:48:58.270Z,1.87
2022-11-20T17:51:27.844Z,1.83
2022-11-20T17:54:04.011Z,1.81
2022-11-20T17:56:54.501Z,1.76
2022-11-20T17:59:22.696Z,1.77
2022-11-20T18:01:49.667Z,1.75
2022-11-20T18:04:17.516Z,1.70
2022-11-20T18:06:45.125Z,1.45
2022-11-20T18:09:13.045Z,1.59
2022-11-20T18:11:42.438Z,1.49
2022-11-20T18:14:29.647Z,1.51
2022-11-20T18:17:06.303Z,1.40
2022-11-20T18:19:44.695Z,1.38
2022-11-20T18:22:20.286Z,1.22
2022-11-20T18:24:47.634Z,1.34
2022-11-20T18:27:21.885Z,1.37
2022-11-20T18:29:52.339Z,1.18
2022-11-20T18:32:21.825Z,1.12
2022-11-20T18:34:49.363Z,1.16
2022-11-20T18:37:17.144Z,1.09
2022-11-20T18:39:44.823Z,1.10
2022-11-20T18:42:35.545Z,1.05
2022-11-20T18:45:05.533Z,0.90
2022-11-20T18:47:38.073Z,0.88
2022-11-20T18:50:07.139Z,0.95
2022-11-20T18:52:40.570Z,0.90
2022-11-20T18:55:08.679Z,0.84
2022-11-20T18:57:36.212Z,0.88
2022-11-20T19:02:55.156Z,0.82
2022-11-20T19:05:22.869Z,0.66
2022-11-20T19:07:50.545Z,0.53
2022-11-20T19:10:21.210Z,0.59
2022-11-20T19:12:49.277Z,0.60
2022-11-20T19:15:16.833Z,0.59
2022-11-20T19:17:44.357Z,0.53
2022-11-20T19:20:12.074Z,0.53
2022-11-20T19:22:39.511Z,0.52
2022-11-20T19:25:07.410Z,0.56
2022-11-20T19:27:34.876Z,0.57
2022-11-20T19:30:04.216Z,0.44
2022-11-20T19:32:31.228Z,0.28
2022-11-20T19:34:58.505Z,0.41
2022-11-20T19:37:25.850Z,0.35
2022-11-20T19:39:53.191Z,0.32
2022-11-20T19:42:20.104Z,0.18
2022-11-20T19:44:47.042Z,0.27
2022-11-20T19:47:14.862Z,0.13
2022-11-20T19:49:42.596Z,0.19
2022-11-20T19:52:10.599Z,0.16
2022-11-20T19:54:38.091Z,0.14
2022-11-20T19:57:05.306Z,0.10
2022-11-20T19:59:32.174Z,0.07
2022-11-20T20:01:59.051Z,-0.03
2022-11-20T20:04:26.649Z,-0.02
2022-11-20T20:06:54.094Z,-0.06
2022-11-20T20:09:24.056Z,-0.19
2022-11-20T20:11:51.517Z,0.02
2022-11-20T20:14:18.978Z,-0.01
2022-11-20T20:16:46.064Z,-0.05
2022-11-20T20:19:15.857Z,-0.07
2022-11-20T20:21:43.949Z,-0.17
2022-11-20T20:24:13.057Z,-0.25
2022-11-20T20:26:42.695Z,-0.14
2022-11-20T20:29:10.608Z,-0.17
2022-11-20T20:31:37.973Z,-0.17
2022-11-20T20:34:06.041Z,-0.29
2022-11-20T20:36:33.307Z,-0.23
2022-11-20T20:39:00.569Z,-0.33
2022-11-20T20:41:27.900Z,-0.27
2022-11-20T20:44:14.247Z,-0.27
2022-11-20T20:46:42.064Z,-0.30
2022-11-20T20:49:09.823Z,-0.30
2022-11-20T20:51:36.780Z,-0.36
2022-11-20T20:54:05.104Z,-0.24
2022-11-20T20:56:35.326Z,-0.25
2022-11-20T20:59:04.083Z,-0.35
2022-11-20T21:01:32.587Z,-0.37
2022-11-20T21:04:00.059Z,-0.52
2022-11-20T21:06:27.070Z,-0.51
2022-11-20T21:08:55.994Z,-0.49
2022-11-20T21:11:23.116Z,-0.56
2022-11-20T21:13:51.302Z,-0.57
2022-11-20T21:16:21.154Z,-0.68
2022-11-20T21:18:48.593Z,-0.56
2022-11-20T21:21:35.118Z,-0.67
2022-11-20T21:24:02.929Z,-0.68
2022-11-20T21:26:29.848Z,-0.80
2022-11-20T21:28:57.861Z,-0.85
2022-11-20T21:31:27.072Z,-0.71
2022-11-20T21:33:55.600Z,-0.68
2022-11-20T21:36:28.554Z,-0.70
2022-11-20T21:38:57.012Z,-0.69
2022-11-20T21:41:26.644Z,-0.68
2022-11-20T21:46:45.700Z,-1.00
2022-11-20T21:49:13.284Z,-0.83
2022-11-20T21:51:40.692Z,-0.92
2022-11-20T21:54:07.583Z,-0.89
2022-11-20T21:56:34.495Z,-0.90
2022-11-20T21:59:01.396Z,-1.01
2022-11-20T22:01:30.185Z,-0.98
2022-11-20T22:03:59.267Z,-0.90
2022-11-20T22:06:29.635Z,-0.90
2022-11-20T22:08:56.884Z,-0.94
2022-11-20T22:11:24.082Z,-1.09
2022-11-20T22:14:09.590Z,-0.94
2022-11-20T22:16:38.002Z,-0.94
2022-11-20T22:19:20.590Z,-0.89
2022-11-20T22:21:48.103Z,-1.08
2022-11-20T22:24:17.205Z,-1.08
2022-11-20T22:26:44.255Z,-0.97
2022-11-20T22:29:17.042Z,-0.97
2022-11-20T22:31:44.129Z,-0.98
2022-11-20T22:34:13.168Z,-1.02
2022-11-20T22:36:40.590Z,-1.01
2022-11-20T22:39:07.742Z,-0.99
2022-11-20T22:41:34.937Z,-1.05
2022-11-20T22:44:04.821Z,-1.04
2022-11-20T22:46:33.986Z,-1.05
2022-11-20T22:49:03.033Z,-1.13
2022-11-20T22:51:32.841Z,-1.15
2022-11-20T22:54:00.245Z,-1.15
2022-11-20T22:56:27.179Z,-1.13
2022-11-20T22:58:54.331Z,-1.14
2022-11-20T23:01:26.407Z,-1.20
2022-11-20T23:04:01.469Z,-1.19
2022-11-20T23:06:29.093Z,-1.20
2022-11-20T23:08:57.043Z,-1.23
2022-11-20T23:11:26.881Z,-1.24
2022-11-20T23:14:02.830Z,-1.19
2022-11-20T23:16:31.401Z,-1.22
2022-11-20T23:19:01.301Z,-1.32
2022-11-20T23:21:28.712Z,-1.33
2022-11-20T23:23:57.288Z,-1.31
2022-11-20T23:26:28.437Z,-1.32
2022-11-20T23:28:57.855Z,-1.31
2022-11-20T23:31:27.049Z,-1.30
2022-11-20T23:33:55.935Z,-1.32
2022-11-20T23:36:23.344Z,-1.36
2022-11-20T23:38:50.519Z,-1.42
2022-11-20T23:41:17.622Z,-1.42
2022-11-20T23:43:44.468Z,-1.47
2022-11-20T23:46:15.123Z,-1.51
2022-11-20T23:48:45.069Z,-1.51
2022-11-20T23:51:13.116Z,-1.49
2022-11-20T23:53:40.057Z,-1.65
2022-11-20T23:56:06.995Z,-1.46
2022-11-20T23:58:36.758Z,-1.52
